sensor_id;sensor_type;location;lat;lon;timestamp;temperature;humidity
31639;DHT22;18248;51.522;7.020;2022-07-03T00:00:48;21.40;92.50
31639;DHT22;18248;51.522;7.020;2022-07-03T00:03:47;21.40;93.20
31639;DHT22;18248;51.522;7.020;2022-07-03T00:06:45;21.30;94.60
31639;DHT22;18248;51.522;7.020;2022-07-03T00:09:44;21.20;95.90
31639;DHT22;18248;51.522;7.020;2022-07-03T00:12:44;21.00;97.30
31639;DHT22;18248;51.522;7.020;2022-07-03T00:15:43;21.00;98.40
31639;DHT22;18248;51.522;7.020;2022-07-03T00:18:42;21.00;99.40
31639;DHT22;18248;51.522;7.020;2022-07-03T00:21:55;20.90;99.90
31639;DHT22;18248;51.522;7.020;2022-07-03T00:25:02;20.80;99.90
31639;DHT22;18248;51.522;7.020;2022-07-03T00:28:01;20.60;99.90
31639;DHT22;18248;51.522;7.020;2022-07-03T00:31:00;20.50;99.90
31639;DHT22;18248;51.522;7.020;2022-07-03T00:34:01;20.50;99.90
31639;DHT22;18248;51.522;7.020;2022-07-03T00:37:00;20.40;99.90
31639;DHT22;18248;51.522;7.020;2022-07-03T00:40:01;20.30;99.90
31639;DHT22;18248;51.522;7.020;2022-07-03T00:43:00;20.20;99.90
31639;DHT22;18248;51.522;7.020;2022-07-03T00:46:09;20.20;99.90
31639;DHT22;18248;51.522;7.020;2022-07-03T00:49:09;20.10;99.90
31639;DHT22;18248;51.522;7.020;2022-07-03T00:52:09;20.10;99.90
31639;DHT22;18248;51.522;7.020;2022-07-03T00:55:15;20.20;99.90
31639;DHT22;18248;51.522;7.020;2022-07-03T00:58:16;20.10;99.90
31639;DHT22;18248;51.522;7.020;2022-07-03T01:01:16;20.00;99.90
31639;DHT22;18248;51.522;7.020;2022-07-03T01:11:19;19.70;99.90
31639;DHT22;18248;51.522;7.020;2022-07-03T01:14:28;19.80;99.90
31639;DHT22;18248;51.522;7.020;2022-07-03T01:17:43;19.80;99.90
31639;DHT22;18248;51.522;7.020;2022-07-03T01:20:52;19.80;99.90
31639;DHT22;18248;51.522;7.020;2022-07-03T01:27:30;19.80;99.90
31639;DHT22;18248;51.522;7.020;2022-07-03T01:30:33;19.50;99.90
31639;DHT22;18248;51.522;7.020;2022-07-03T01:33:35;19.40;99.90
31639;DHT22;18248;51.522;7.020;2022-07-03T01:36:38;19.50;99.90
31639;DHT22;18248;51.522;7.020;2022-07-03T01:39:39;19.50;99.90
31639;DHT22;18248;51.522;7.020;2022-07-03T01:42:41;19.40;99.90
31639;DHT22;18248;51.522;7.020;2022-07-03T01:45:47;19.50;99.90
31639;DHT22;18248;51.522;7.020;2022-07-03T01:48:46;19.50;99.90
31639;DHT22;18248;51.522;7.020;2022-07-03T01:51:48;19.60;99.90
31639;DHT22;18248;51.522;7.020;2022-07-03T01:54:49;19.70;99.90
31639;DHT22;18248;51.522;7.020;2022-07-03T01:57:50;19.60;99.90
31639;DHT22;18248;51.522;7.020;2022-07-03T02:04:30;19.50;99.90
31639;DHT22;18248;51.522;7.020;2022-07-03T02:07:47;19.60;99.90
31639;DHT22;18248;51.522;7.020;2022-07-03T02:14:08;19.60;99.90
31639;DHT22;18248;51.522;7.020;2022-07-03T02:17:20;19.60;99.90
31639;DHT22;18248;51.522;7.020;2022-07-03T02:20:20;19.60;99.90
31639;DHT22;18248;51.522;7.020;2022-07-03T02:23:22;19.60;99.90
31639;DHT22;18248;51.522;7.020;2022-07-03T02:26:29;19.60;99.90
31639;DHT22;18248;51.522;7.020;2022-07-03T02:29:43;19.40;99.90
31639;DHT22;18248;51.522;7.020;2022-07-03T02:32:48;19.30;99.90
31639;DHT22;18248;51.522;7.020;2022-07-03T02:35:47;19.20;99.90
31639;DHT22;18248;51.522;7.020;2022-07-03T02:38:50;19.00;99.90
31639;DHT22;18248;51.522;7.020;2022-07-03T02:41:57;18.90;99.90
31639;DHT22;18248;51.522;7.020;2022-07-03T02:45:00;18.90;99.90
31639;DHT22;18248;51.522;7.020;2022-07-03T02:48:12;18.90;99.90
31639;DHT22;18248;51.522;7.020;2022-07-03T02:51:21;18.90;99.90
31639;DHT22;18248;51.522;7.020;2022-07-03T02:54:20;19.00;99.90
31639;DHT22;18248;51.522;7.020;2022-07-03T02:57:19;19.10;99.90
31639;DHT22;18248;51.522;7.020;2022-07-03T03:00:18;19.10;99.90
31639;DHT22;18248;51.522;7.020;2022-07-03T03:03:20;19.20;99.90
31639;DHT22;18248;51.522;7.020;2022-07-03T03:06:26;19.20;99.90
31639;DHT22;18248;51.522;7.020;2022-07-03T03:09:32;19.10;99.90
31639;DHT22;18248;51.522;7.020;2022-07-03T03:12:36;19.10;99.90
31639;DHT22;18248;51.522;7.020;2022-07-03T03:15:36;18.90;99.90
31639;DHT22;18248;51.522;7.020;2022-07-03T03:18:39;18.80;99.90
31639;DHT22;18248;51.522;7.020;2022-07-03T03:21:48;18.80;99.90
31639;DHT22;18248;51.522;7.020;2022-07-03T03:24:48;18.80;99.90
31639;DHT22;18248;51.522;7.020;2022-07-03T03:27:47;18.90;99.90
31639;DHT22;18248;51.522;7.020;2022-07-03T03:30:46;18.90;99.90
31639;DHT22;18248;51.522;7.020;2022-07-03T03:33:47;18.70;99.90
31639;DHT22;18248;51.522;7.020;2022-07-03T03:36:46;18.80;99.90
31639;DHT22;18248;51.522;7.020;2022-07-03T03:39:45;18.80;99.90
31639;DHT22;18248;51.522;7.020;2022-07-03T03:42:44;18.80;99.90
31639;DHT22;18248;51.522;7.020;2022-07-03T03:45:43;18.90;99.90
31639;DHT22;18248;51.522;7.020;2022-07-03T03:48:41;18.90;99.90
31639;DHT22;18248;51.522;7.020;2022-07-03T03:51:40;18.90;99.90
31639;DHT22;18248;51.522;7.020;2022-07-03T03:54:39;18.70;99.90
31639;DHT22;18248;51.522;7.020;2022-07-03T03:57:37;18.60;99.90
31639;DHT22;18248;51.522;7.020;2022-07-03T04:00:36;18.50;99.90
31639;DHT22;18248;51.522;7.020;2022-07-03T04:03:35;18.50;99.90
31639;DHT22;18248;51.522;7.020;2022-07-03T04:06:34;18.50;99.90
31639;DHT22;18248;51.522;7.020;2022-07-03T04:09:32;18.60;99.90
31639;DHT22;18248;51.522;7.020;2022-07-03T04:12:31;18.60;99.90
31639;DHT22;18248;51.522;7.020;2022-07-03T04:15:30;18.50;99.90
31639;DHT22;18248;51.522;7.020;2022-07-03T04:18:28;18.60;99.90
31639;DHT22;18248;51.522;7.020;2022-07-03T04:21:27;18.70;99.90
31639;DHT22;18248;51.522;7.020;2022-07-03T04:24:27;18.80;99.90
31639;DHT22;18248;51.522;7.020;2022-07-03T04:27:25;18.90;99.90
31639;DHT22;18248;51.522;7.020;2022-07-03T04:30:24;18.80;99.90
31639;DHT22;18248;51.522;7.020;2022-07-03T04:33:23;18.90;99.90
31639;DHT22;18248;51.522;7.020;2022-07-03T04:36:21;19.00;99.90
31639;DHT22;18248;51.522;7.020;2022-07-03T04:39:20;19.00;99.90
31639;DHT22;18248;51.522;7.020;2022-07-03T04:42:18;19.00;99.90
31639;DHT22;18248;51.522;7.020;2022-07-03T04:45:17;19.10;99.90
31639;DHT22;18248;51.522;7.020;2022-07-03T04:48:15;19.10;99.90
31639;DHT22;18248;51.522;7.020;2022-07-03T04:51:14;19.10;99.90
31639;DHT22;18248;51.522;7.020;2022-07-03T04:54:13;19.00;99.90
31639;DHT22;18248;51.522;7.020;2022-07-03T04:57:11;19.10;99.90
31639;DHT22;18248;51.522;7.020;2022-07-03T05:00:10;19.10;99.90
31639;DHT22;18248;51.522;7.020;2022-07-03T05:03:09;19.20;99.90
31639;DHT22;18248;51.522;7.020;2022-07-03T05:06:09;19.80;99.90
31639;DHT22;18248;51.522;7.020;2022-07-03T05:09:07;20.90;99.90
31639;DHT22;18248;51.522;7.020;2022-07-03T05:12:06;21.80;99.90
31639;DHT22;18248;51.522;7.020;2022-07-03T05:15:05;23.30;99.90
31639;DHT22;18248;51.522;7.020;2022-07-03T05:18:04;24.80;99.90
31639;DHT22;18248;51.522;7.020;2022-07-03T05:21:03;26.20;99.90
31639;DHT22;18248;51.522;7.020;2022-07-03T05:24:02;26.90;99.90
31639;DHT22;18248;51.522;7.020;2022-07-03T05:27:00;26.90;99.90
31639;DHT22;18248;51.522;7.020;2022-07-03T05:29:59;26.40;99.90
31639;DHT22;18248;51.522;7.020;2022-07-03T05:32:57;25.80;99.90
31639;DHT22;18248;51.522;7.020;2022-07-03T05:35:56;25.20;99.90
31639;DHT22;18248;51.522;7.020;2022-07-03T05:38:55;24.60;99.90
31639;DHT22;18248;51.522;7.020;2022-07-03T05:42:12;24.00;99.90
31639;DHT22;18248;51.522;7.020;2022-07-03T05:45:12;23.60;99.90
31639;DHT22;18248;51.522;7.020;2022-07-03T05:48:10;23.20;99.90
31639;DHT22;18248;51.522;7.020;2022-07-03T05:51:10;23.10;99.90
31639;DHT22;18248;51.522;7.020;2022-07-03T05:54:08;24.30;99.90
31639;DHT22;18248;51.522;7.020;2022-07-03T05:57:08;26.10;99.90
31639;DHT22;18248;51.522;7.020;2022-07-03T06:00:06;27.80;99.90
31639;DHT22;18248;51.522;7.020;2022-07-03T06:03:05;29.30;99.90
31639;DHT22;18248;51.522;7.020;2022-07-03T06:06:04;30.50;99.90
31639;DHT22;18248;51.522;7.020;2022-07-03T06:09:03;31.70;97.40
31639;DHT22;18248;51.522;7.020;2022-07-03T06:12:01;32.40;91.80
31639;DHT22;18248;51.522;7.020;2022-07-03T06:15:00;32.90;84.70
31639;DHT22;18248;51.522;7.020;2022-07-03T06:17:58;33.50;79.90
31639;DHT22;18248;51.522;7.020;2022-07-03T06:20:57;33.80;76.00
31639;DHT22;18248;51.522;7.020;2022-07-03T06:23:55;34.40;72.00
31639;DHT22;18248;51.522;7.020;2022-07-03T06:26:56;34.90;67.60
31639;DHT22;18248;51.522;7.020;2022-07-03T06:29:54;35.30;65.70
31639;DHT22;18248;51.522;7.020;2022-07-03T06:32:53;36.00;63.30
31639;DHT22;18248;51.522;7.020;2022-07-03T06:35:51;36.20;60.50
31639;DHT22;18248;51.522;7.020;2022-07-03T06:38:50;36.40;58.80
31639;DHT22;18248;51.522;7.020;2022-07-03T06:41:49;36.90;58.50
31639;DHT22;18248;51.522;7.020;2022-07-03T06:44:47;37.40;57.00
31639;DHT22;18248;51.522;7.020;2022-07-03T06:47:46;37.50;56.40
31639;DHT22;18248;51.522;7.020;2022-07-03T06:50:47;37.80;55.60
31639;DHT22;18248;51.522;7.020;2022-07-03T06:53:46;37.90;54.40
31639;DHT22;18248;51.522;7.020;2022-07-03T06:56:45;38.10;54.10
31639;DHT22;18248;51.522;7.020;2022-07-03T06:59:43;37.80;53.60
31639;DHT22;18248;51.522;7.020;2022-07-03T07:02:42;38.30;53.40
31639;DHT22;18248;51.522;7.020;2022-07-03T07:05:40;38.40;52.00
31639;DHT22;18248;51.522;7.020;2022-07-03T07:08:39;38.20;51.90
31639;DHT22;18248;51.522;7.020;2022-07-03T07:11:37;38.30;52.00
31639;DHT22;18248;51.522;7.020;2022-07-03T07:14:36;38.40;51.30
31639;DHT22;18248;51.522;7.020;2022-07-03T07:17:34;38.40;51.30
31639;DHT22;18248;51.522;7.020;2022-07-03T07:20:33;38.40;50.70
31639;DHT22;18248;51.522;7.020;2022-07-03T07:23:32;37.80;51.20
31639;DHT22;18248;51.522;7.020;2022-07-03T07:26:30;38.30;51.10
31639;DHT22;18248;51.522;7.020;2022-07-03T07:29:29;38.70;50.30
31639;DHT22;18248;51.522;7.020;2022-07-03T07:32:27;38.80;49.80
31639;DHT22;18248;51.522;7.020;2022-07-03T07:35:26;38.30;49.60
31639;DHT22;18248;51.522;7.020;2022-07-03T07:38:24;38.20;49.80
31639;DHT22;18248;51.522;7.020;2022-07-03T07:41:23;38.40;49.40
31639;DHT22;18248;51.522;7.020;2022-07-03T07:44:22;38.60;49.50
31639;DHT22;18248;51.522;7.020;2022-07-03T07:47:20;38.60;48.90
31639;DHT22;18248;51.522;7.020;2022-07-03T07:50:19;38.30;48.90
31639;DHT22;18248;51.522;7.020;2022-07-03T07:53:18;38.30;49.00
31639;DHT22;18248;51.522;7.020;2022-07-03T07:56:17;38.40;48.80
31639;DHT22;18248;51.522;7.020;2022-07-03T07:59:16;38.40;48.60
31639;DHT22;18248;51.522;7.020;2022-07-03T08:02:14;38.50;48.60
31639;DHT22;18248;51.522;7.020;2022-07-03T08:05:32;38.50;48.50
31639;DHT22;18248;51.522;7.020;2022-07-03T08:08:33;38.30;48.80
31639;DHT22;18248;51.522;7.020;2022-07-03T08:11:32;38.40;48.40
31639;DHT22;18248;51.522;7.020;2022-07-03T08:14:30;38.50;48.10
31639;DHT22;18248;51.522;7.020;2022-07-03T08:17:29;38.40;47.90
31639;DHT22;18248;51.522;7.020;2022-07-03T08:20:28;38.20;48.20
31639;DHT22;18248;51.522;7.020;2022-07-03T08:23:26;38.00;48.10
31639;DHT22;18248;51.522;7.020;2022-07-03T08:26:25;38.10;47.90
31639;DHT22;18248;51.522;7.020;2022-07-03T08:29:23;38.10;47.90
31639;DHT22;18248;51.522;7.020;2022-07-03T08:32:22;37.90;47.40
31639;DHT22;18248;51.522;7.020;2022-07-03T08:35:20;37.20;47.60
31639;DHT22;18248;51.522;7.020;2022-07-03T08:38:19;37.10;47.60
31639;DHT22;18248;51.522;7.020;2022-07-03T08:41:18;36.80;48.10
31639;DHT22;18248;51.522;7.020;2022-07-03T08:44:19;37.00;47.70
31639;DHT22;18248;51.522;7.020;2022-07-03T08:47:19;36.90;47.80
31639;DHT22;18248;51.522;7.020;2022-07-03T08:50:19;36.60;48.30
31639;DHT22;18248;51.522;7.020;2022-07-03T08:53:18;36.20;48.30
31639;DHT22;18248;51.522;7.020;2022-07-03T08:56:17;35.90;48.20
31639;DHT22;18248;51.522;7.020;2022-07-03T08:59:17;35.30;49.10
31639;DHT22;18248;51.522;7.020;2022-07-03T09:02:18;34.90;49.80
31639;DHT22;18248;51.522;7.020;2022-07-03T09:05:17;34.20;50.40
31639;DHT22;18248;51.522;7.020;2022-07-03T09:08:17;33.70;51.40
31639;DHT22;18248;51.522;7.020;2022-07-03T09:11:16;33.30;51.70
31639;DHT22;18248;51.522;7.020;2022-07-03T09:14:15;33.00;52.20
31639;DHT22;18248;51.522;7.020;2022-07-03T09:17:14;32.50;52.50
31639;DHT22;18248;51.522;7.020;2022-07-03T09:20:13;31.90;53.50
31639;DHT22;18248;51.522;7.020;2022-07-03T09:23:17;31.70;53.60
31639;DHT22;18248;51.522;7.020;2022-07-03T09:26:18;31.50;54.60
31639;DHT22;18248;51.522;7.020;2022-07-03T09:29:17;31.20;54.70
31639;DHT22;18248;51.522;7.020;2022-07-03T09:32:16;31.20;55.40
31639;DHT22;18248;51.522;7.020;2022-07-03T09:35:26;30.90;55.10
31639;DHT22;18248;51.522;7.020;2022-07-03T09:38:25;31.00;56.60
31639;DHT22;18248;51.522;7.020;2022-07-03T09:41:23;30.90;55.70
31639;DHT22;18248;51.522;7.020;2022-07-03T09:44:33;30.90;55.70
31639;DHT22;18248;51.522;7.020;2022-07-03T09:47:32;30.60;56.60
31639;DHT22;18248;51.522;7.020;2022-07-03T09:50:31;30.50;56.80
31639;DHT22;18248;51.522;7.020;2022-07-03T09:53:58;30.40;57.00
31639;DHT22;18248;51.522;7.020;2022-07-03T09:56:58;30.60;57.20
31639;DHT22;18248;51.522;7.020;2022-07-03T10:00:15;30.60;57.30
31639;DHT22;18248;51.522;7.020;2022-07-03T10:03:14;30.60;57.50
31639;DHT22;18248;51.522;7.020;2022-07-03T10:06:14;30.50;57.20
31639;DHT22;18248;51.522;7.020;2022-07-03T10:09:18;30.40;57.00
31639;DHT22;18248;51.522;7.020;2022-07-03T10:12:17;30.60;57.10
31639;DHT22;18248;51.522;7.020;2022-07-03T10:15:16;30.50;56.90
31639;DHT22;18248;51.522;7.020;2022-07-03T10:18:14;30.50;58.00
31639;DHT22;18248;51.522;7.020;2022-07-03T10:21:15;30.60;58.00
31639;DHT22;18248;51.522;7.020;2022-07-03T10:24:16;30.80;58.10
31639;DHT22;18248;51.522;7.020;2022-07-03T10:27:15;30.80;58.30
31639;DHT22;18248;51.522;7.020;2022-07-03T10:30:19;30.80;58.00
31639;DHT22;18248;51.522;7.020;2022-07-03T10:33:18;30.40;58.10
31639;DHT22;18248;51.522;7.020;2022-07-03T10:36:18;30.70;58.20
31639;DHT22;18248;51.522;7.020;2022-07-03T10:39:56;30.80;57.60
31639;DHT22;18248;51.522;7.020;2022-07-03T10:43:27;30.70;57.30
31639;DHT22;18248;51.522;7.020;2022-07-03T10:46:44;30.70;58.20
31639;DHT22;18248;51.522;7.020;2022-07-03T10:50:00;30.70;57.30
31639;DHT22;18248;51.522;7.020;2022-07-03T10:53:23;30.40;58.20
31639;DHT22;18248;51.522;7.020;2022-07-03T10:56:21;30.50;59.20
31639;DHT22;18248;51.522;7.020;2022-07-03T10:59:20;30.50;58.70
31639;DHT22;18248;51.522;7.020;2022-07-03T11:02:32;30.70;58.60
31639;DHT22;18248;51.522;7.020;2022-07-03T11:05:37;30.40;58.90
31639;DHT22;18248;51.522;7.020;2022-07-03T11:09:08;30.60;59.40
31639;DHT22;18248;51.522;7.020;2022-07-03T11:12:09;30.90;59.00
31639;DHT22;18248;51.522;7.020;2022-07-03T11:15:28;30.90;58.30
31639;DHT22;18248;51.522;7.020;2022-07-03T11:18:32;30.50;58.20
31639;DHT22;18248;51.522;7.020;2022-07-03T11:21:33;30.40;58.80
31639;DHT22;18248;51.522;7.020;2022-07-03T11:24:38;30.70;58.30
31639;DHT22;18248;51.522;7.020;2022-07-03T11:27:37;30.70;58.50
31639;DHT22;18248;51.522;7.020;2022-07-03T11:34:06;30.70;58.30
31639;DHT22;18248;51.522;7.020;2022-07-03T11:37:08;30.90;58.10
31639;DHT22;18248;51.522;7.020;2022-07-03T11:40:07;30.90;57.90
31639;DHT22;18248;51.522;7.020;2022-07-03T11:43:06;31.00;58.10
31639;DHT22;18248;51.522;7.020;2022-07-03T11:46:05;30.90;57.70
31639;DHT22;18248;51.522;7.020;2022-07-03T11:49:08;30.80;57.70
31639;DHT22;18248;51.522;7.020;2022-07-03T11:52:07;31.00;57.70
31639;DHT22;18248;51.522;7.020;2022-07-03T11:55:06;31.00;58.30
31639;DHT22;18248;51.522;7.020;2022-07-03T11:58:06;31.10;58.00
31639;DHT22;18248;51.522;7.020;2022-07-03T12:01:04;31.40;57.70
31639;DHT22;18248;51.522;7.020;2022-07-03T12:04:17;31.60;57.10
31639;DHT22;18248;51.522;7.020;2022-07-03T12:07:16;31.50;56.40
31639;DHT22;18248;51.522;7.020;2022-07-03T12:10:14;31.20;56.30
31639;DHT22;18248;51.522;7.020;2022-07-03T12:13:20;31.30;56.80
31639;DHT22;18248;51.522;7.020;2022-07-03T12:16:19;31.50;56.20
31639;DHT22;18248;51.522;7.020;2022-07-03T12:19:29;31.70;55.90
31639;DHT22;18248;51.522;7.020;2022-07-03T12:22:32;31.50;56.10
31639;DHT22;18248;51.522;7.020;2022-07-03T12:25:31;31.30;56.60
31639;DHT22;18248;51.522;7.020;2022-07-03T12:28:30;31.30;56.60
31639;DHT22;18248;51.522;7.020;2022-07-03T12:31:29;31.20;56.40
31639;DHT22;18248;51.522;7.020;2022-07-03T12:34:28;31.10;56.40
31639;DHT22;18248;51.522;7.020;2022-07-03T12:37:37;31.20;56.90
31639;DHT22;18248;51.522;7.020;2022-07-03T12:40:37;31.40;56.80
31639;DHT22;18248;51.522;7.020;2022-07-03T12:43:40;31.70;56.70
31639;DHT22;18248;51.522;7.020;2022-07-03T12:46:41;31.60;56.10
31639;DHT22;18248;51.522;7.020;2022-07-03T12:49:40;31.50;56.10
31639;DHT22;18248;51.522;7.020;2022-07-03T12:52:50;31.40;56.10
31639;DHT22;18248;51.522;7.020;2022-07-03T12:55:49;31.50;55.90
31639;DHT22;18248;51.522;7.020;2022-07-03T12:58:48;31.40;56.20
31639;DHT22;18248;51.522;7.020;2022-07-03T13:02:05;31.20;55.80
31639;DHT22;18248;51.522;7.020;2022-07-03T13:05:17;31.10;56.10
31639;DHT22;18248;51.522;7.020;2022-07-03T13:08:16;31.00;56.30
31639;DHT22;18248;51.522;7.020;2022-07-03T13:11:29;31.00;56.70
31639;DHT22;18248;51.522;7.020;2022-07-03T13:14:28;31.00;56.30
31639;DHT22;18248;51.522;7.020;2022-07-03T13:17:50;31.00;56.20
31639;DHT22;18248;51.522;7.020;2022-07-03T13:20:48;31.10;56.40
31639;DHT22;18248;51.522;7.020;2022-07-03T13:23:48;30.80;56.40
31639;DHT22;18248;51.522;7.020;2022-07-03T13:26:48;30.70;56.20
31639;DHT22;18248;51.522;7.020;2022-07-03T13:29:47;31.10;56.60
31639;DHT22;18248;51.522;7.020;2022-07-03T13:32:46;31.00;55.50
31639;DHT22;18248;51.522;7.020;2022-07-03T13:35:44;30.90;56.70
31639;DHT22;18248;51.522;7.020;2022-07-03T13:38:46;31.10;55.80
31639;DHT22;18248;51.522;7.020;2022-07-03T13:41:45;31.10;55.50
31639;DHT22;18248;51.522;7.020;2022-07-03T13:44:43;30.70;55.80
31639;DHT22;18248;51.522;7.020;2022-07-03T13:47:42;30.60;56.00
31639;DHT22;18248;51.522;7.020;2022-07-03T13:50:42;30.50;56.80
31639;DHT22;18248;51.522;7.020;2022-07-03T13:53:40;30.50;55.90
31639;DHT22;18248;51.522;7.020;2022-07-03T13:56:39;30.60;55.90
31639;DHT22;18248;51.522;7.020;2022-07-03T13:59:37;30.80;55.70
31639;DHT22;18248;51.522;7.020;2022-07-03T14:02:36;30.50;56.00
31639;DHT22;18248;51.522;7.020;2022-07-03T14:05:35;30.30;56.70
31639;DHT22;18248;51.522;7.020;2022-07-03T14:08:34;30.20;56.70
31639;DHT22;18248;51.522;7.020;2022-07-03T14:11:32;30.20;56.40
31639;DHT22;18248;51.522;7.020;2022-07-03T14:14:31;30.20;57.20
31639;DHT22;18248;51.522;7.020;2022-07-03T14:17:29;30.10;57.50
31639;DHT22;18248;51.522;7.020;2022-07-03T14:20:28;30.00;57.80
31639;DHT22;18248;51.522;7.020;2022-07-03T14:23:28;29.70;57.50
31639;DHT22;18248;51.522;7.020;2022-07-03T14:26:28;29.50;58.10
31639;DHT22;18248;51.522;7.020;2022-07-03T14:29:45;29.60;58.40
31639;DHT22;18248;51.522;7.020;2022-07-03T14:33:02;29.30;58.60
31639;DHT22;18248;51.522;7.020;2022-07-03T14:36:01;29.20;58.90
31639;DHT22;18248;51.522;7.020;2022-07-03T14:38:59;29.10;58.90
31639;DHT22;18248;51.522;7.020;2022-07-03T14:41:58;29.20;59.20
31639;DHT22;18248;51.522;7.020;2022-07-03T14:44:57;29.10;59.10
31639;DHT22;18248;51.522;7.020;2022-07-03T14:47:55;29.00;59.30
31639;DHT22;18248;51.522;7.020;2022-07-03T14:50:55;29.00;59.50
31639;DHT22;18248;51.522;7.020;2022-07-03T14:53:53;29.10;59.70
31639;DHT22;18248;51.522;7.020;2022-07-03T14:56:57;28.90;59.70
31639;DHT22;18248;51.522;7.020;2022-07-03T15:00:06;28.90;59.60
31639;DHT22;18248;51.522;7.020;2022-07-03T15:03:06;28.80;60.00
31639;DHT22;18248;51.522;7.020;2022-07-03T15:06:08;28.70;59.80
31639;DHT22;18248;51.522;7.020;2022-07-03T15:09:11;28.70;60.80
31639;DHT22;18248;51.522;7.020;2022-07-03T15:12:15;28.90;60.30
31639;DHT22;18248;51.522;7.020;2022-07-03T15:15:29;29.10;59.80
31639;DHT22;18248;51.522;7.020;2022-07-03T15:18:29;28.90;59.40
31639;DHT22;18248;51.522;7.020;2022-07-03T15:21:30;28.80;59.70
31639;DHT22;18248;51.522;7.020;2022-07-03T15:24:31;28.90;59.80
31639;DHT22;18248;51.522;7.020;2022-07-03T15:27:30;28.90;59.90
31639;DHT22;18248;51.522;7.020;2022-07-03T15:30:28;28.80;59.90
31639;DHT22;18248;51.522;7.020;2022-07-03T15:33:27;28.70;59.70
31639;DHT22;18248;51.522;7.020;2022-07-03T15:36:29;28.50;60.30
31639;DHT22;18248;51.522;7.020;2022-07-03T15:39:41;28.60;60.00
31639;DHT22;18248;51.522;7.020;2022-07-03T15:46:11;28.60;60.60
31639;DHT22;18248;51.522;7.020;2022-07-03T15:49:27;28.70;60.70
31639;DHT22;18248;51.522;7.020;2022-07-03T15:52:28;28.60;60.10
31639;DHT22;18248;51.522;7.020;2022-07-03T15:55:29;28.80;60.70
31639;DHT22;18248;51.522;7.020;2022-07-03T15:58:33;28.90;59.80
31639;DHT22;18248;51.522;7.020;2022-07-03T16:01:38;28.90;60.00
31639;DHT22;18248;51.522;7.020;2022-07-03T16:05:06;28.50;60.10
31639;DHT22;18248;51.522;7.020;2022-07-03T16:08:17;28.50;60.20
31639;DHT22;18248;51.522;7.020;2022-07-03T16:11:16;28.40;60.20
31639;DHT22;18248;51.522;7.020;2022-07-03T16:14:17;28.20;60.00
31639;DHT22;18248;51.522;7.020;2022-07-03T16:17:18;28.30;60.80
31639;DHT22;18248;51.522;7.020;2022-07-03T16:20:17;28.00;61.40
31639;DHT22;18248;51.522;7.020;2022-07-03T16:23:17;27.80;61.00
31639;DHT22;18248;51.522;7.020;2022-07-03T16:26:17;27.70;61.10
31639;DHT22;18248;51.522;7.020;2022-07-03T16:29:15;27.50;62.00
31639;DHT22;18248;51.522;7.020;2022-07-03T16:32:19;27.50;63.10
31639;DHT22;18248;51.522;7.020;2022-07-03T16:35:40;27.40;63.90
31639;DHT22;18248;51.522;7.020;2022-07-03T16:38:42;27.40;63.60
31639;DHT22;18248;51.522;7.020;2022-07-03T16:41:44;27.40;64.00
31639;DHT22;18248;51.522;7.020;2022-07-03T16:44:49;27.30;65.10
31639;DHT22;18248;51.522;7.020;2022-07-03T16:47:49;27.30;63.50
31639;DHT22;18248;51.522;7.020;2022-07-03T16:50:58;27.20;63.10
31639;DHT22;18248;51.522;7.020;2022-07-03T16:54:01;27.10;63.00
31639;DHT22;18248;51.522;7.020;2022-07-03T16:57:01;27.20;63.20
31639;DHT22;18248;51.522;7.020;2022-07-03T17:00:01;27.10;63.70
31639;DHT22;18248;51.522;7.020;2022-07-03T17:02:59;27.10;62.50
31639;DHT22;18248;51.522;7.020;2022-07-03T17:05:58;27.10;62.20
31639;DHT22;18248;51.522;7.020;2022-07-03T17:08:59;27.30;62.30
31639;DHT22;18248;51.522;7.020;2022-07-03T17:11:58;27.30;61.40
31639;DHT22;18248;51.522;7.020;2022-07-03T17:14:57;27.20;60.30
31639;DHT22;18248;51.522;7.020;2022-07-03T17:18:06;27.00;60.20
31639;DHT22;18248;51.522;7.020;2022-07-03T17:21:06;26.80;60.10
31639;DHT22;18248;51.522;7.020;2022-07-03T17:24:07;26.70;60.70
31639;DHT22;18248;51.522;7.020;2022-07-03T17:27:07;26.70;61.20
31639;DHT22;18248;51.522;7.020;2022-07-03T17:30:11;26.60;61.70
31639;DHT22;18248;51.522;7.020;2022-07-03T17:33:12;26.50;62.50
31639;DHT22;18248;51.522;7.020;2022-07-03T17:36:22;26.50;63.80
31639;DHT22;18248;51.522;7.020;2022-07-03T17:39:21;26.40;65.00
31639;DHT22;18248;51.522;7.020;2022-07-03T17:42:22;26.40;65.50
31639;DHT22;18248;51.522;7.020;2022-07-03T17:45:22;26.30;65.90
31639;DHT22;18248;51.522;7.020;2022-07-03T17:48:21;26.20;66.80
31639;DHT22;18248;51.522;7.020;2022-07-03T17:51:22;26.10;66.90
31639;DHT22;18248;51.522;7.020;2022-07-03T17:54:22;25.80;67.50
31639;DHT22;18248;51.522;7.020;2022-07-03T17:57:21;25.70;68.20
31639;DHT22;18248;51.522;7.020;2022-07-03T18:00:38;25.50;68.60
31639;DHT22;18248;51.522;7.020;2022-07-03T18:03:37;25.30;69.10
31639;DHT22;18248;51.522;7.020;2022-07-03T18:06:36;25.20;69.60
31639;DHT22;18248;51.522;7.020;2022-07-03T18:09:37;25.20;69.90
31639;DHT22;18248;51.522;7.020;2022-07-03T18:12:43;25.00;70.10
31639;DHT22;18248;51.522;7.020;2022-07-03T18:15:53;25.00;70.90
31639;DHT22;18248;51.522;7.020;2022-07-03T18:18:56;24.90;70.90
31639;DHT22;18248;51.522;7.020;2022-07-03T18:22:00;24.80;70.20
31639;DHT22;18248;51.522;7.020;2022-07-03T18:25:02;24.60;70.00
31639;DHT22;18248;51.522;7.020;2022-07-03T18:28:02;24.60;70.40
31639;DHT22;18248;51.522;7.020;2022-07-03T18:31:03;24.60;70.20
31639;DHT22;18248;51.522;7.020;2022-07-03T18:34:02;24.60;70.40
31639;DHT22;18248;51.522;7.020;2022-07-03T18:37:01;24.60;70.10
31639;DHT22;18248;51.522;7.020;2022-07-03T18:40:03;24.60;69.90
31639;DHT22;18248;51.522;7.020;2022-07-03T18:43:02;24.50;69.90
31639;DHT22;18248;51.522;7.020;2022-07-03T18:46:02;24.50;70.40
31639;DHT22;18248;51.522;7.020;2022-07-03T18:49:04;24.50;70.60
31639;DHT22;18248;51.522;7.020;2022-07-03T18:52:08;24.50;70.90
31639;DHT22;18248;51.522;7.020;2022-07-03T18:55:34;24.30;70.60
31639;DHT22;18248;51.522;7.020;2022-07-03T18:59:08;24.20;71.10
31639;DHT22;18248;51.522;7.020;2022-07-03T19:02:16;24.00;71.70
31639;DHT22;18248;51.522;7.020;2022-07-03T19:05:16;23.80;71.90
31639;DHT22;18248;51.522;7.020;2022-07-03T19:08:44;23.60;72.00
31639;DHT22;18248;51.522;7.020;2022-07-03T19:12:00;23.60;73.20
31639;DHT22;18248;51.522;7.020;2022-07-03T19:15:00;23.50;73.00
31639;DHT22;18248;51.522;7.020;2022-07-03T19:17:59;23.30;72.80
31639;DHT22;18248;51.522;7.020;2022-07-03T19:20:58;23.30;73.20
31639;DHT22;18248;51.522;7.020;2022-07-03T19:23:56;23.30;73.50
31639;DHT22;18248;51.522;7.020;2022-07-03T19:26:55;23.10;73.50
31639;DHT22;18248;51.522;7.020;2022-07-03T19:29:54;23.10;73.90
31639;DHT22;18248;51.522;7.020;2022-07-03T19:32:53;23.10;74.10